sensor_id;sensor_type;location;lat;lon;timestamp;P1;durP1;ratioP1;P2;durP2;ratioP2
11269;SDS011;5692;48.956;9.200;2022-10-26T00:00:31;167.50;;;159.50;;
11269;SDS011;5692;48.956;9.200;2022-10-26T00:02:58;172.55;;;164.30;;
11269;SDS011;5692;48.956;9.200;2022-10-26T00:05:31;182.40;;;173.70;;
11269;SDS011;5692;48.956;9.200;2022-10-26T00:08:01;178.95;;;170.35;;
11269;SDS011;5692;48.956;9.200;2022-10-26T00:10:27;172.82;;;164.52;;
11269;SDS011;5692;48.956;9.200;2022-10-26T00:12:53;188.55;;;179.52;;
11269;SDS011;5692;48.956;9.200;2022-10-26T00:15:19;168.05;;;160.00;;
11269;SDS011;5692;48.956;9.200;2022-10-26T00:17:50;181.10;;;172.43;;
11269;SDS011;5692;48.956;9.200;2022-10-26T00:20:22;167.45;;;159.45;;
11269;SDS011;5692;48.956;9.200;2022-10-26T00:22:51;171.43;;;163.23;;
11269;SDS011;5692;48.956;9.200;2022-10-26T00:25:19;180.52;;;171.88;;
11269;SDS011;5692;48.956;9.200;2022-10-26T00:27:45;175.43;;;167.02;;
11269;SDS011;5692;48.956;9.200;2022-10-26T00:30:23;171.27;;;163.07;;
11269;SDS011;5692;48.956;9.200;2022-10-26T00:32:52;168.10;;;160.02;;
11269;SDS011;5692;48.956;9.200;2022-10-26T00:35:18;187.82;;;178.85;;
11269;SDS011;5692;48.956;9.200;2022-10-26T00:37:44;167.63;;;159.60;;
11269;SDS011;5692;48.956;9.200;2022-10-26T00:40:13;171.63;;;163.43;;
11269;SDS011;5692;48.956;9.200;2022-10-26T00:42:39;171.98;;;163.75;;
11269;SDS011;5692;48.956;9.200;2022-10-26T00:47:47;176.35;;;167.90;;
11269;SDS011;5692;48.956;9.200;2022-10-26T00:50:17;179.65;;;171.05;;
11269;SDS011;5692;48.956;9.200;2022-10-26T00:52:48;174.88;;;166.48;;
11269;SDS011;5692;48.956;9.200;2022-10-26T00:55:14;180.27;;;171.68;;
11269;SDS011;5692;48.956;9.200;2022-10-26T00:57:47;176.07;;;167.68;;
11269;SDS011;5692;48.956;9.200;2022-10-26T01:00:19;165.25;;;157.32;;
11269;SDS011;5692;48.956;9.200;2022-10-26T01:02:54;180.18;;;171.55;;
11269;SDS011;5692;48.956;9.200;2022-10-26T01:05:22;176.07;;;167.68;;
11269;SDS011;5692;48.956;9.200;2022-10-26T01:07:48;183.02;;;174.25;;
11269;SDS011;5692;48.956;9.200;2022-10-26T01:10:19;178.45;;;169.90;;
11269;SDS011;5692;48.956;9.200;2022-10-26T01:12:45;178.52;;;169.98;;
11269;SDS011;5692;48.956;9.200;2022-10-26T01:15:11;189.85;;;180.75;;
11269;SDS011;5692;48.956;9.200;2022-10-26T01:17:42;167.93;;;159.88;;
11269;SDS011;5692;48.956;9.200;2022-10-26T01:20:27;185.20;;;176.32;;
11269;SDS011;5692;48.956;9.200;2022-10-26T01:23:02;173.82;;;165.52;;
11269;SDS011;5692;48.956;9.200;2022-10-26T01:28:25;169.60;;;161.50;;
11269;SDS011;5692;48.956;9.200;2022-10-26T01:30:57;168.68;;;160.60;;
11269;SDS011;5692;48.956;9.200;2022-10-26T01:33:28;170.10;;;161.98;;
11269;SDS011;5692;48.956;9.200;2022-10-26T01:36:07;164.75;;;156.85;;
11269;SDS011;5692;48.956;9.200;2022-10-26T01:38:41;163.70;;;155.85;;
11269;SDS011;5692;48.956;9.200;2022-10-26T01:43:48;159.88;;;152.23;;
11269;SDS011;5692;48.956;9.200;2022-10-26T01:46:18;172.43;;;164.15;;
11269;SDS011;5692;48.956;9.200;2022-10-26T01:48:46;170.32;;;162.18;;
11269;SDS011;5692;48.956;9.200;2022-10-26T01:51:16;167.10;;;159.10;;
11269;SDS011;5692;48.956;9.200;2022-10-26T01:53:45;166.02;;;158.05;;
11269;SDS011;5692;48.956;9.200;2022-10-26T01:56:21;181.40;;;172.73;;
11269;SDS011;5692;48.956;9.200;2022-10-26T01:58:51;164.32;;;156.43;;
11269;SDS011;5692;48.956;9.200;2022-10-26T02:06:29;165.80;;;157.88;;
11269;SDS011;5692;48.956;9.200;2022-10-26T02:08:57;163.18;;;155.38;;
11269;SDS011;5692;48.956;9.200;2022-10-26T02:11:38;163.15;;;155.32;;
11269;SDS011;5692;48.956;9.200;2022-10-26T02:14:11;157.00;;;149.48;;
11269;SDS011;5692;48.956;9.200;2022-10-26T02:16:48;161.32;;;153.63;;
11269;SDS011;5692;48.956;9.200;2022-10-26T02:21:53;170.52;;;162.35;;
11269;SDS011;5692;48.956;9.200;2022-10-26T02:24:21;157.02;;;149.50;;
11269;SDS011;5692;48.956;9.200;2022-10-26T02:26:47;165.65;;;157.73;;
11269;SDS011;5692;48.956;9.200;2022-10-26T02:29:18;157.18;;;149.68;;
11269;SDS011;5692;48.956;9.200;2022-10-26T02:31:48;167.70;;;159.65;;
11269;SDS011;5692;48.956;9.200;2022-10-26T02:34:18;171.70;;;163.45;;
11269;SDS011;5692;48.956;9.200;2022-10-26T02:36:45;171.40;;;163.20;;
11269;SDS011;5692;48.956;9.200;2022-10-26T02:39:13;170.55;;;162.35;;
11269;SDS011;5692;48.956;9.200;2022-10-26T02:41:42;179.48;;;170.88;;
11269;SDS011;5692;48.956;9.200;2022-10-26T02:44:28;169.27;;;161.18;;
11269;SDS011;5692;48.956;9.200;2022-10-26T02:46:55;169.70;;;161.60;;
11269;SDS011;5692;48.956;9.200;2022-10-26T02:49:33;169.70;;;161.55;;
11269;SDS011;5692;48.956;9.200;2022-10-26T02:52:15;161.25;;;153.55;;
11269;SDS011;5692;48.956;9.200;2022-10-26T02:54:49;167.27;;;159.25;;
11269;SDS011;5692;48.956;9.200;2022-10-26T02:57:25;161.75;;;154.00;;
11269;SDS011;5692;48.956;9.200;2022-10-26T02:59:56;176.82;;;168.32;;
11269;SDS011;5692;48.956;9.200;2022-10-26T03:02:25;170.73;;;162.52;;
11269;SDS011;5692;48.956;9.200;2022-10-26T03:04:54;183.55;;;174.75;;
11269;SDS011;5692;48.956;9.200;2022-10-26T03:07:24;169.40;;;161.27;;
11269;SDS011;5692;48.956;9.200;2022-10-26T03:09:53;170.43;;;162.23;;
11269;SDS011;5692;48.956;9.200;2022-10-26T03:12:19;163.35;;;155.52;;
11269;SDS011;5692;48.956;9.200;2022-10-26T03:14:45;158.45;;;150.85;;
11269;SDS011;5692;48.956;9.200;2022-10-26T03:17:11;163.45;;;155.63;;
11269;SDS011;5692;48.956;9.200;2022-10-26T03:19:37;169.52;;;161.43;;
11269;SDS011;5692;48.956;9.200;2022-10-26T03:22:03;148.82;;;141.73;;
11269;SDS011;5692;48.956;9.200;2022-10-26T03:24:37;150.65;;;143.45;;
11269;SDS011;5692;48.956;9.200;2022-10-26T03:27:03;157.20;;;149.68;;
11269;SDS011;5692;48.956;9.200;2022-10-26T03:29:29;155.43;;;147.98;;
11269;SDS011;5692;48.956;9.200;2022-10-26T03:31:55;149.75;;;142.55;;
11269;SDS011;5692;48.956;9.200;2022-10-26T03:34:21;162.80;;;155.00;;
11269;SDS011;5692;48.956;9.200;2022-10-26T03:36:47;158.65;;;151.05;;
11269;SDS011;5692;48.956;9.200;2022-10-26T03:39:16;156.25;;;148.77;;
11269;SDS011;5692;48.956;9.200;2022-10-26T03:41:42;145.68;;;138.70;;
11269;SDS011;5692;48.956;9.200;2022-10-26T03:44:08;143.98;;;137.07;;
11269;SDS011;5692;48.956;9.200;2022-10-26T03:46:38;148.02;;;140.93;;
11269;SDS011;5692;48.956;9.200;2022-10-26T03:49:04;153.85;;;146.48;;
11269;SDS011;5692;48.956;9.200;2022-10-26T03:51:32;153.73;;;146.35;;
11269;SDS011;5692;48.956;9.200;2022-10-26T03:54:00;157.93;;;150.32;;
11269;SDS011;5692;48.956;9.200;2022-10-26T03:56:26;167.63;;;159.57;;
11269;SDS011;5692;48.956;9.200;2022-10-26T03:58:52;146.27;;;139.25;;
11269;SDS011;5692;48.956;9.200;2022-10-26T04:01:18;137.15;;;130.55;;
11269;SDS011;5692;48.956;9.200;2022-10-26T04:03:44;147.55;;;140.48;;
11269;SDS011;5692;48.956;9.200;2022-10-26T04:06:10;142.68;;;135.82;;
11269;SDS011;5692;48.956;9.200;2022-10-26T04:08:36;169.43;;;161.32;;
11269;SDS011;5692;48.956;9.200;2022-10-26T04:11:02;150.43;;;143.23;;
11269;SDS011;5692;48.956;9.200;2022-10-26T04:13:28;157.75;;;150.20;;
11269;SDS011;5692;48.956;9.200;2022-10-26T04:15:55;160.07;;;152.38;;
11269;SDS011;5692;48.956;9.200;2022-10-26T04:18:23;147.75;;;140.65;;
11269;SDS011;5692;48.956;9.200;2022-10-26T04:20:49;153.15;;;145.82;;
11269;SDS011;5692;48.956;9.200;2022-10-26T04:23:16;159.00;;;151.38;;
11269;SDS011;5692;48.956;9.200;2022-10-26T04:25:48;153.20;;;145.85;;
11269;SDS011;5692;48.956;9.200;2022-10-26T04:28:17;162.75;;;154.95;;
11269;SDS011;5692;48.956;9.200;2022-10-26T04:30:46;152.13;;;144.82;;
11269;SDS011;5692;48.956;9.200;2022-10-26T04:33:12;162.40;;;154.63;;
11269;SDS011;5692;48.956;9.200;2022-10-26T04:35:39;169.18;;;161.07;;
11269;SDS011;5692;48.956;9.200;2022-10-26T04:38:06;181.80;;;173.10;;
11269;SDS011;5692;48.956;9.200;2022-10-26T04:40:35;160.52;;;152.82;;
11269;SDS011;5692;48.956;9.200;2022-10-26T04:43:01;147.52;;;140.45;;
11269;SDS011;5692;48.956;9.200;2022-10-26T04:45:28;145.35;;;138.38;;
11269;SDS011;5692;48.956;9.200;2022-10-26T04:48:04;132.48;;;126.07;;
11269;SDS011;5692;48.956;9.200;2022-10-26T04:50:33;145.35;;;138.38;;
11269;SDS011;5692;48.956;9.200;2022-10-26T04:53:05;141.93;;;135.13;;
11269;SDS011;5692;48.956;9.200;2022-10-26T04:55:33;148.20;;;141.10;;
11269;SDS011;5692;48.956;9.200;2022-10-26T04:58:00;153.82;;;146.45;;
11269;SDS011;5692;48.956;9.200;2022-10-26T05:00:26;149.57;;;142.40;;
11269;SDS011;5692;48.956;9.200;2022-10-26T05:03:00;161.98;;;154.23;;
11269;SDS011;5692;48.956;9.200;2022-10-26T05:05:30;151.50;;;144.20;;
11269;SDS011;5692;48.956;9.200;2022-10-26T05:07:57;161.35;;;153.65;;
11269;SDS011;5692;48.956;9.200;2022-10-26T05:10:23;156.38;;;148.88;;
11269;SDS011;5692;48.956;9.200;2022-10-26T05:12:52;166.13;;;158.18;;
11269;SDS011;5692;48.956;9.200;2022-10-26T05:15:21;158.70;;;151.10;;
11269;SDS011;5692;48.956;9.200;2022-10-26T05:17:57;156.10;;;148.60;;
11269;SDS011;5692;48.956;9.200;2022-10-26T05:20:24;154.73;;;147.30;;
11269;SDS011;5692;48.956;9.200;2022-10-26T05:22:58;154.75;;;147.32;;
11269;SDS011;5692;48.956;9.200;2022-10-26T05:25:30;155.38;;;147.93;;
11269;SDS011;5692;48.956;9.200;2022-10-26T05:28:00;164.10;;;156.23;;
11269;SDS011;5692;48.956;9.200;2022-10-26T05:30:27;146.10;;;139.10;;
11269;SDS011;5692;48.956;9.200;2022-10-26T05:32:56;150.60;;;143.40;;
11269;SDS011;5692;48.956;9.200;2022-10-26T05:35:23;162.95;;;155.15;;
11269;SDS011;5692;48.956;9.200;2022-10-26T05:37:59;151.32;;;144.05;;
11269;SDS011;5692;48.956;9.200;2022-10-26T05:40:29;156.00;;;148.52;;
11269;SDS011;5692;48.956;9.200;2022-10-26T05:43:01;168.70;;;160.63;;
11269;SDS011;5692;48.956;9.200;2022-10-26T05:45:27;165.13;;;157.23;;
11269;SDS011;5692;48.956;9.200;2022-10-26T05:47:54;161.27;;;153.55;;
11269;SDS011;5692;48.956;9.200;2022-10-26T05:50:20;162.30;;;154.52;;
11269;SDS011;5692;48.956;9.200;2022-10-26T05:52:46;151.38;;;144.10;;
11269;SDS011;5692;48.956;9.200;2022-10-26T05:55:15;169.43;;;161.32;;
11269;SDS011;5692;48.956;9.200;2022-10-26T05:57:42;158.90;;;151.30;;
11269;SDS011;5692;48.956;9.200;2022-10-26T06:00:15;168.52;;;160.43;;
11269;SDS011;5692;48.956;9.200;2022-10-26T06:02:52;162.85;;;155.05;;
11269;SDS011;5692;48.956;9.200;2022-10-26T06:05:20;161.40;;;153.65;;
11269;SDS011;5692;48.956;9.200;2022-10-26T06:07:52;147.35;;;140.27;;
11269;SDS011;5692;48.956;9.200;2022-10-26T06:10:19;153.18;;;145.85;;
11269;SDS011;5692;48.956;9.200;2022-10-26T06:12:45;146.35;;;139.35;;
11269;SDS011;5692;48.956;9.200;2022-10-26T06:15:15;159.05;;;151.43;;
11269;SDS011;5692;48.956;9.200;2022-10-26T06:28:06;180.57;;;171.93;;
11269;SDS011;5692;48.956;9.200;2022-10-26T06:30:41;162.63;;;154.82;;
11269;SDS011;5692;48.956;9.200;2022-10-26T06:33:11;167.90;;;159.85;;
11269;SDS011;5692;48.956;9.200;2022-10-26T06:38:13;167.68;;;159.68;;
11269;SDS011;5692;48.956;9.200;2022-10-26T06:40:44;175.40;;;167.00;;
11269;SDS011;5692;48.956;9.200;2022-10-26T06:43:12;182.18;;;173.48;;
11269;SDS011;5692;48.956;9.200;2022-10-26T06:45:45;181.40;;;172.73;;
11269;SDS011;5692;48.956;9.200;2022-10-26T06:48:15;174.13;;;165.80;;
11269;SDS011;5692;48.956;9.200;2022-10-26T06:50:49;178.88;;;170.30;;
11269;SDS011;5692;48.956;9.200;2022-10-26T06:53:39;170.20;;;162.05;;
11269;SDS011;5692;48.956;9.200;2022-10-26T06:56:09;159.02;;;151.43;;
11269;SDS011;5692;48.956;9.200;2022-10-26T06:58:36;152.88;;;145.55;;
11269;SDS011;5692;48.956;9.200;2022-10-26T07:01:07;158.63;;;151.02;;
11269;SDS011;5692;48.956;9.200;2022-10-26T07:03:39;152.60;;;145.30;;
11269;SDS011;5692;48.956;9.200;2022-10-26T07:06:07;159.85;;;152.18;;
11269;SDS011;5692;48.956;9.200;2022-10-26T07:08:33;143.85;;;136.95;;
11269;SDS011;5692;48.956;9.200;2022-10-26T07:11:00;146.02;;;139.02;;
11269;SDS011;5692;48.956;9.200;2022-10-26T07:13:31;149.18;;;142.02;;
11269;SDS011;5692;48.956;9.200;2022-10-26T07:16:00;150.23;;;143.02;;
11269;SDS011;5692;48.956;9.200;2022-10-26T07:18:26;153.40;;;146.05;;
11269;SDS011;5692;48.956;9.200;2022-10-26T07:20:55;152.10;;;144.80;;
11269;SDS011;5692;48.956;9.200;2022-10-26T07:23:26;144.70;;;137.77;;
11269;SDS011;5692;48.956;9.200;2022-10-26T07:25:51;150.13;;;142.93;;
11269;SDS011;5692;48.956;9.200;2022-10-26T07:28:20;142.70;;;135.90;;
11269;SDS011;5692;48.956;9.200;2022-10-26T07:30:46;153.27;;;145.93;;
11269;SDS011;5692;48.956;9.200;2022-10-26T07:33:13;144.43;;;137.50;;
11269;SDS011;5692;48.956;9.200;2022-10-26T07:35:39;156.20;;;148.70;;
11269;SDS011;5692;48.956;9.200;2022-10-26T07:38:05;141.95;;;135.15;;
11269;SDS011;5692;48.956;9.200;2022-10-26T07:40:31;158.20;;;150.60;;
11269;SDS011;5692;48.956;9.200;2022-10-26T07:42:58;155.00;;;147.60;;
11269;SDS011;5692;48.956;9.200;2022-10-26T07:45:28;152.52;;;145.20;;
11269;SDS011;5692;48.956;9.200;2022-10-26T07:47:55;154.95;;;147.55;;
11269;SDS011;5692;48.956;9.200;2022-10-26T07:50:24;161.10;;;153.38;;
11269;SDS011;5692;48.956;9.200;2022-10-26T07:52:50;152.85;;;145.52;;
11269;SDS011;5692;48.956;9.200;2022-10-26T07:55:19;160.30;;;152.60;;
11269;SDS011;5692;48.956;9.200;2022-10-26T07:57:45;154.23;;;146.82;;
11269;SDS011;5692;48.956;9.200;2022-10-26T08:00:11;157.20;;;149.65;;
11269;SDS011;5692;48.956;9.200;2022-10-26T08:02:37;179.73;;;171.13;;
11269;SDS011;5692;48.956;9.200;2022-10-26T08:05:06;166.48;;;158.50;;
11269;SDS011;5692;48.956;9.200;2022-10-26T08:07:32;177.43;;;168.93;;
11269;SDS011;5692;48.956;9.200;2022-10-26T08:10:01;185.57;;;176.68;;
11269;SDS011;5692;48.956;9.200;2022-10-26T08:12:29;189.63;;;180.52;;
11269;SDS011;5692;48.956;9.200;2022-10-26T08:14:55;180.15;;;171.52;;
11269;SDS011;5692;48.956;9.200;2022-10-26T08:17:22;171.57;;;163.38;;
11269;SDS011;5692;48.956;9.200;2022-10-26T08:19:50;171.85;;;163.65;;
11269;SDS011;5692;48.956;9.200;2022-10-26T08:22:16;172.55;;;164.25;;
11269;SDS011;5692;48.956;9.200;2022-10-26T08:24:42;170.07;;;161.93;;
11269;SDS011;5692;48.956;9.200;2022-10-26T08:27:17;156.30;;;148.80;;
11269;SDS011;5692;48.956;9.200;2022-10-26T08:29:43;167.55;;;159.52;;
11269;SDS011;5692;48.956;9.200;2022-10-26T08:32:09;167.40;;;159.40;;
11269;SDS011;5692;48.956;9.200;2022-10-26T08:34:35;164.88;;;156.98;;
11269;SDS011;5692;48.956;9.200;2022-10-26T08:37:04;160.88;;;153.18;;
11269;SDS011;5692;48.956;9.200;2022-10-26T08:39:32;165.23;;;157.32;;
11269;SDS011;5692;48.956;9.200;2022-10-26T08:42:08;178.80;;;170.23;;
11269;SDS011;5692;48.956;9.200;2022-10-26T08:44:37;169.07;;;160.98;;
11269;SDS011;5692;48.956;9.200;2022-10-26T08:47:12;177.73;;;169.23;;
11269;SDS011;5692;48.956;9.200;2022-10-26T08:52:09;163.35;;;155.52;;
11269;SDS011;5692;48.956;9.200;2022-10-26T08:54:54;166.52;;;158.52;;
11269;SDS011;5692;48.956;9.200;2022-10-26T08:57:25;160.90;;;153.18;;
11269;SDS011;5692;48.956;9.200;2022-10-26T08:59:55;168.77;;;160.68;;
11269;SDS011;5692;48.956;9.200;2022-10-26T09:02:24;157.00;;;149.50;;
11269;SDS011;5692;48.956;9.200;2022-10-26T09:04:51;173.25;;;164.95;;
11269;SDS011;5692;48.956;9.200;2022-10-26T09:17:50;178.38;;;169.85;;
11269;SDS011;5692;48.956;9.200;2022-10-26T09:25:47;185.35;;;176.48;;
11269;SDS011;5692;48.956;9.200;2022-10-26T09:28:17;198.48;;;188.98;;
11269;SDS011;5692;48.956;9.200;2022-10-26T09:30:47;203.43;;;193.70;;
11269;SDS011;5692;48.956;9.200;2022-10-26T09:33:15;205.90;;;196.05;;
11269;SDS011;5692;48.956;9.200;2022-10-26T09:43:28;209.77;;;199.73;;
11269;SDS011;5692;48.956;9.200;2022-10-26T09:45:57;229.90;;;218.90;;
11269;SDS011;5692;48.956;9.200;2022-10-26T09:48:38;232.30;;;221.20;;
11269;SDS011;5692;48.956;9.200;2022-10-26T09:51:06;250.52;;;238.55;;
11269;SDS011;5692;48.956;9.200;2022-10-26T09:53:32;245.32;;;233.63;;
11269;SDS011;5692;48.956;9.200;2022-10-26T09:56:05;259.70;;;247.30;;
11269;SDS011;5692;48.956;9.200;2022-10-26T09:58:34;254.43;;;242.27;;
11269;SDS011;5692;48.956;9.200;2022-10-26T10:01:01;234.27;;;223.07;;
11269;SDS011;5692;48.956;9.200;2022-10-26T10:03:28;174.65;;;166.27;;
11269;SDS011;5692;48.956;9.200;2022-10-26T10:06:16;189.10;;;180.02;;
11269;SDS011;5692;48.956;9.200;2022-10-26T10:14:26;161.43;;;153.70;;
11269;SDS011;5692;48.956;9.200;2022-10-26T10:16:54;8.07;;;4.15;;
11269;SDS011;5692;48.956;9.200;2022-10-26T10:19:24;7.03;;;3.83;;
11269;SDS011;5692;48.956;9.200;2022-10-26T10:21:54;7.80;;;2.92;;
11269;SDS011;5692;48.956;9.200;2022-10-26T10:26:57;189.65;;;180.57;;
11269;SDS011;5692;48.956;9.200;2022-10-26T10:29:24;11.00;;;3.00;;
11269;SDS011;5692;48.956;9.200;2022-10-26T10:31:57;7.53;;;2.30;;
11269;SDS011;5692;48.956;9.200;2022-10-26T10:34:23;6.25;;;3.33;;
11269;SDS011;5692;48.956;9.200;2022-10-26T10:36:50;8.85;;;2.88;;
11269;SDS011;5692;48.956;9.200;2022-10-26T10:39:38;6.93;;;1.55;;
11269;SDS011;5692;48.956;9.200;2022-10-26T10:42:20;10.65;;;3.03;;
11269;SDS011;5692;48.956;9.200;2022-10-26T10:44:52;8.60;;;2.88;;
11269;SDS011;5692;48.956;9.200;2022-10-26T10:47:25;7.97;;;3.10;;
11269;SDS011;5692;48.956;9.200;2022-10-26T10:49:53;5.78;;;3.75;;
11269;SDS011;5692;48.956;9.200;2022-10-26T10:52:31;8.73;;;3.97;;
11269;SDS011;5692;48.956;9.200;2022-10-26T10:55:19;14.23;;;3.92;;
11269;SDS011;5692;48.956;9.200;2022-10-26T10:57:51;13.25;;;3.80;;
11269;SDS011;5692;48.956;9.200;2022-10-26T11:00:21;6.68;;;3.17;;
11269;SDS011;5692;48.956;9.200;2022-10-26T11:10:35;213.15;;;202.95;;
11269;SDS011;5692;48.956;9.200;2022-10-26T11:13:09;7.40;;;2.53;;
11269;SDS011;5692;48.956;9.200;2022-10-26T11:15:51;131.67;;;125.37;;
11269;SDS011;5692;48.956;9.200;2022-10-26T11:18:25;185.90;;;177.00;;
11269;SDS011;5692;48.956;9.200;2022-10-26T11:20:59;199.60;;;190.07;;
11269;SDS011;5692;48.956;9.200;2022-10-26T11:26:08;6.30;;;2.47;;
11269;SDS011;5692;48.956;9.200;2022-10-26T11:28:49;9.35;;;3.80;;
11269;SDS011;5692;48.956;9.200;2022-10-26T11:31:35;218.88;;;208.40;;
11269;SDS011;5692;48.956;9.200;2022-10-26T11:34:07;56.58;;;53.83;;
11269;SDS011;5692;48.956;9.200;2022-10-26T11:36:37;111.45;;;106.10;;
11269;SDS011;5692;48.956;9.200;2022-10-26T11:39:21;8.75;;;4.00;;
11269;SDS011;5692;48.956;9.200;2022-10-26T11:41:55;5.10;;;1.48;;
11269;SDS011;5692;48.956;9.200;2022-10-26T11:44:31;5.95;;;2.20;;
11269;SDS011;5692;48.956;9.200;2022-10-26T11:50:05;8.77;;;2.55;;
11269;SDS011;5692;48.956;9.200;2022-10-26T11:52:43;6.80;;;1.90;;
11269;SDS011;5692;48.956;9.200;2022-10-26T11:55:12;9.80;;;2.20;;
11269;SDS011;5692;48.956;9.200;2022-10-26T11:57:41;6.40;;;2.70;;
11269;SDS011;5692;48.956;9.200;2022-10-26T12:02:41;246.80;;;235.00;;
11269;SDS011;5692;48.956;9.200;2022-10-26T12:07:52;251.95;;;239.90;;
11269;SDS011;5692;48.956;9.200;2022-10-26T12:10:24;260.50;;;248.05;;
11269;SDS011;5692;48.956;9.200;2022-10-26T12:20:42;296.23;;;282.05;;
11269;SDS011;5692;48.956;9.200;2022-10-26T12:23:13;312.05;;;297.15;;
11269;SDS011;5692;48.956;9.200;2022-10-26T12:25:40;319.67;;;304.40;;
11269;SDS011;5692;48.956;9.200;2022-10-26T12:33:50;341.53;;;325.20;;
11269;SDS011;5692;48.956;9.200;2022-10-26T12:39:00;301.87;;;287.43;;
11269;SDS011;5692;48.956;9.200;2022-10-26T12:41:26;323.08;;;307.65;;
11269;SDS011;5692;48.956;9.200;2022-10-26T12:43:56;303.02;;;288.55;;
11269;SDS011;5692;48.956;9.200;2022-10-26T12:48:51;282.27;;;268.77;;
11269;SDS011;5692;48.956;9.200;2022-10-26T12:56:25;293.73;;;279.67;;
11269;SDS011;5692;48.956;9.200;2022-10-26T13:01:52;277.88;;;264.58;;
11269;SDS011;5692;48.956;9.200;2022-10-26T13:09:41;284.65;;;271.05;;
11269;SDS011;5692;48.956;9.200;2022-10-26T13:12:12;286.00;;;272.35;;
11269;SDS011;5692;48.956;9.200;2022-10-26T13:14:39;285.27;;;271.65;;
11269;SDS011;5692;48.956;9.200;2022-10-26T13:17:05;276.67;;;263.48;;
11269;SDS011;5692;48.956;9.200;2022-10-26T13:19:47;264.45;;;251.80;;
11269;SDS011;5692;48.956;9.200;2022-10-26T13:22:14;251.27;;;239.23;;
11269;SDS011;5692;48.956;9.200;2022-10-26T13:24:46;246.02;;;234.25;;
11269;SDS011;5692;48.956;9.200;2022-10-26T13:32:26;307.07;;;292.37;;
11269;SDS011;5692;48.956;9.200;2022-10-26T13:34:52;270.40;;;257.50;;
11269;SDS011;5692;48.956;9.200;2022-10-26T13:37:24;266.45;;;253.73;;
11269;SDS011;5692;48.956;9.200;2022-10-26T13:39:52;254.32;;;242.18;;
11269;SDS011;5692;48.956;9.200;2022-10-26T13:42:23;251.38;;;239.35;;
11269;SDS011;5692;48.956;9.200;2022-10-26T13:45:01;254.18;;;242.02;;
11269;SDS011;5692;48.956;9.200;2022-10-26T13:50:45;248.73;;;236.82;;
11269;SDS011;5692;48.956;9.200;2022-10-26T13:52:48;236.77;;;225.48;;
11269;SDS011;5692;48.956;9.200;2022-10-26T13:57:45;234.93;;;223.70;;
11269;SDS011;5692;48.956;9.200;2022-10-26T14:00:16;221.10;;;210.50;;
11269;SDS011;5692;48.956;9.200;2022-10-26T14:02:46;224.40;;;213.68;;
11269;SDS011;5692;48.956;9.200;2022-10-26T14:05:13;231.40;;;220.30;;
11269;SDS011;5692;48.956;9.200;2022-10-26T14:07:42;224.25;;;213.52;;
11269;SDS011;5692;48.956;9.200;2022-10-26T14:13:15;216.13;;;205.77;;
11269;SDS011;5692;48.956;9.200;2022-10-26T14:15:43;217.30;;;206.90;;
11269;SDS011;5692;48.956;9.200;2022-10-26T14:18:14;235.25;;;224.00;;
11269;SDS011;5692;48.956;9.200;2022-10-26T14:20:49;240.25;;;228.75;;
11269;SDS011;5692;48.956;9.200;2022-10-26T14:23:29;222.43;;;211.77;;
11269;SDS011;5692;48.956;9.200;2022-10-26T14:25:57;230.32;;;219.30;;
11269;SDS011;5692;48.956;9.200;2022-10-26T14:28:27;220.40;;;209.85;;
11269;SDS011;5692;48.956;9.200;2022-10-26T14:30:56;232.48;;;221.35;;
11269;SDS011;5692;48.956;9.200;2022-10-26T14:33:38;228.18;;;217.25;;
11269;SDS011;5692;48.956;9.200;2022-10-26T14:36:04;223.18;;;212.48;;
11269;SDS011;5692;48.956;9.200;2022-10-26T14:38:36;237.23;;;225.90;;
11269;SDS011;5692;48.956;9.200;2022-10-26T14:41:06;233.15;;;222.00;;
11269;SDS011;5692;48.956;9.200;2022-10-26T14:43:32;253.60;;;241.48;;
11269;SDS011;5692;48.956;9.200;2022-10-26T14:46:01;246.35;;;234.55;;
11269;SDS011;5692;48.956;9.200;2022-10-26T14:48:31;239.63;;;228.18;;
11269;SDS011;5692;48.956;9.200;2022-10-26T14:53:37;248.52;;;236.63;;
11269;SDS011;5692;48.956;9.200;2022-10-26T14:56:26;243.55;;;231.90;;
11269;SDS011;5692;48.956;9.200;2022-10-26T14:58:53;241.35;;;229.80;;
11269;SDS011;5692;48.956;9.200;2022-10-26T15:01:26;236.32;;;225.00;;
11269;SDS011;5692;48.956;9.200;2022-10-26T15:03:59;230.60;;;219.57;;
11269;SDS011;5692;48.956;9.200;2022-10-26T15:06:29;236.88;;;225.55;;
11269;SDS011;5692;48.956;9.200;2022-10-26T15:08:59;230.65;;;219.63;;
11269;SDS011;5692;48.956;9.200;2022-10-26T15:11:25;218.98;;;208.48;;
11269;SDS011;5692;48.956;9.200;2022-10-26T15:13:54;214.15;;;203.90;;
11269;SDS011;5692;48.956;9.200;2022-10-26T15:16:25;227.43;;;216.55;;
11269;SDS011;5692;48.956;9.200;2022-10-26T15:19:14;215.85;;;205.55;;
11269;SDS011;5692;48.956;9.200;2022-10-26T15:21:42;224.70;;;213.95;;
11269;SDS011;5692;48.956;9.200;2022-10-26T15:26:48;219.52;;;209.02;;
11269;SDS011;5692;48.956;9.200;2022-10-26T15:31:59;229.10;;;218.15;;
11269;SDS011;5692;48.956;9.200;2022-10-26T15:34:25;226.00;;;215.20;;
11269;SDS011;5692;48.956;9.200;2022-10-26T15:36:51;241.00;;;229.47;;
11269;SDS011;5692;48.956;9.200;2022-10-26T15:39:17;219.07;;;208.57;;
11269;SDS011;5692;48.956;9.200;2022-10-26T15:41:46;221.07;;;210.50;;
11269;SDS011;5692;48.956;9.200;2022-10-26T15:44:14;226.02;;;215.23;;
11269;SDS011;5692;48.956;9.200;2022-10-26T15:46:43;233.55;;;222.35;;
11269;SDS011;5692;48.956;9.200;2022-10-26T15:49:16;236.10;;;224.80;;
11269;SDS011;5692;48.956;9.200;2022-10-26T15:51:45;218.10;;;207.70;;
11269;SDS011;5692;48.956;9.200;2022-10-26T15:54:12;225.20;;;214.40;;
11269;SDS011;5692;48.956;9.200;2022-10-26T15:56:38;221.10;;;210.50;;
11269;SDS011;5692;48.956;9.200;2022-10-26T15:59:17;223.02;;;212.38;;
11269;SDS011;5692;48.956;9.200;2022-10-26T16:01:46;207.38;;;197.48;;
11269;SDS011;5692;48.956;9.200;2022-10-26T16:04:12;205.73;;;195.90;;
11269;SDS011;5692;48.956;9.200;2022-10-26T16:06:41;216.85;;;206.45;;
11269;SDS011;5692;48.956;9.200;2022-10-26T16:09:15;223.05;;;212.38;;
11269;SDS011;5692;48.956;9.200;2022-10-26T16:11:43;216.60;;;206.23;;
11269;SDS011;5692;48.956;9.200;2022-10-26T16:14:10;206.80;;;196.90;;
11269;SDS011;5692;48.956;9.200;2022-10-26T16:16:36;220.77;;;210.23;;
11269;SDS011;5692;48.956;9.200;2022-10-26T16:19:03;234.93;;;223.70;;
11269;SDS011;5692;48.956;9.200;2022-10-26T16:21:29;234.27;;;223.07;;
11269;SDS011;5692;48.956;9.200;2022-10-26T16:23:55;239.27;;;227.82;;
11269;SDS011;5692;48.956;9.200;2022-10-26T16:26:22;239.82;;;228.38;;
11269;SDS011;5692;48.956;9.200;2022-10-26T16:28:48;223.85;;;213.15;;
11269;SDS011;5692;48.956;9.200;2022-10-26T16:31:17;223.25;;;212.57;;
11269;SDS011;5692;48.956;9.200;2022-10-26T16:33:44;232.93;;;221.80;;
11269;SDS011;5692;48.956;9.200;2022-10-26T16:36:11;244.38;;;232.68;;
11269;SDS011;5692;48.956;9.200;2022-10-26T16:38:37;234.68;;;223.45;;
11269;SDS011;5692;48.956;9.200;2022-10-26T16:41:04;212.75;;;202.57;;
11269;SDS011;5692;48.956;9.200;2022-10-26T16:43:37;198.70;;;189.20;;